createdAt,value
2022-08-10T00:01:52.243Z,102270.16
2022-08-10T00:04:24.121Z,102271.03
2022-08-10T00:06:55.740Z,102281.47
2022-08-10T00:09:24.452Z,102274.47
2022-08-10T00:11:51.855Z,102279.53
2022-08-10T00:14:19.277Z,102281.19
2022-08-10T00:16:46.553Z,102283.50
2022-08-10T00:19:16.778Z,102286.16
2022-08-10T00:21:47.431Z,102274.34
2022-08-10T00:24:15.405Z,102281.38
2022-08-10T00:27:52.230Z,102286.34
2022-08-10T00:29:30.083Z,102279.91
2022-08-10T00:31:59.104Z,102283.00
2022-08-10T00:34:32.439Z,102278.88
2022-08-10T00:37:00.303Z,102283.34
2022-08-10T00:39:29.277Z,102283.03
2022-08-10T00:42:06.880Z,102282.28
2022-08-10T00:44:50.247Z,102281.19
2022-08-10T00:47:36.287Z,102287.16
2022-08-10T00:50:07.206Z,102283.81
2022-08-10T00:52:36.955Z,102287.59
2022-08-10T00:55:06.253Z,102284.16
2022-08-10T00:57:35.225Z,102286.84
2022-08-10T01:00:05.647Z,102288.88
2022-08-10T01:02:33.521Z,102293.31
2022-08-10T01:05:15.633Z,102284.03
2022-08-10T01:07:51.366Z,102289.78
2022-08-10T01:10:54.553Z,102284.97
2022-08-10T01:13:44.263Z,102281.72
2022-08-10T01:17:01.891Z,102290.34
2022-08-10T01:19:59.700Z,102298.06
2022-08-10T01:22:53.153Z,102296.28
2022-08-10T01:26:12.444Z,102295.06
2022-08-10T01:28:58.059Z,102289.44
2022-08-10T01:31:32.197Z,102297.63
2022-08-10T01:34:07.839Z,102285.31
2022-08-10T01:37:01.304Z,102285.38
2022-08-10T01:39:39.547Z,102285.69
2022-08-10T01:42:15.887Z,102281.09
2022-08-10T01:45:17.513Z,102284.47
2022-08-10T01:48:06.424Z,102285.31
2022-08-10T01:50:59.415Z,102286.28
2022-08-10T01:53:53.652Z,102286.69
2022-08-10T01:56:24.707Z,102286.75
2022-08-10T01:58:59.855Z,102276.25
2022-08-10T02:01:32.640Z,102282.06
2022-08-10T02:04:06.928Z,102283.34
2022-08-10T02:06:46.089Z,102285.13
2022-08-10T02:09:19.956Z,102286.06
2022-08-10T02:12:06.346Z,102281.88
2022-08-10T02:14:46.961Z,102276.44
2022-08-10T02:17:58.492Z,102280.00
2022-08-10T02:20:18.374Z,102277.84
2022-08-10T02:22:53.260Z,102277.28
2022-08-10T02:25:40.936Z,102286.53
2022-08-10T02:28:29.822Z,102272.47
2022-08-10T02:31:16.841Z,102269.81
2022-08-10T02:33:57.208Z,102276.69
2022-08-10T02:36:29.661Z,102277.09
2022-08-10T02:39:01.983Z,102273.25
2022-08-10T02:45:12.621Z,102273.53
2022-08-10T02:45:23.510Z,102273.56
2022-08-10T02:48:06.006Z,102271.84
2022-08-10T02:50:40.122Z,102273.97
2022-08-10T02:53:51.390Z,102271.09
2022-08-10T02:56:39.800Z,102275.66
2022-08-10T02:59:22.585Z,102268.91
2022-08-10T03:01:54.464Z,102268.97
2022-08-10T03:04:55.442Z,102278.69
2022-08-10T03:07:43.261Z,102274.84
2022-08-10T03:10:32.573Z,102282.31
2022-08-10T03:13:31.796Z,102287.16
2022-08-10T03:16:01.573Z,102286.03
2022-08-10T03:18:32.683Z,102283.97
2022-08-10T03:21:00.957Z,102286.03
2022-08-10T03:23:29.355Z,102288.09
2022-08-10T03:25:59.191Z,102293.00
2022-08-10T03:28:32.533Z,102291.22
2022-08-10T03:31:01.697Z,102295.19
2022-08-10T03:33:37.109Z,102306.41
2022-08-10T03:36:41.943Z,102297.63
2022-08-10T03:38:53.515Z,102304.59
2022-08-10T03:41:35.759Z,102297.09
2022-08-10T03:44:05.237Z,102299.31
2022-08-10T03:46:37.410Z,102307.00
2022-08-10T03:49:05.916Z,102306.22
2022-08-10T03:51:34.872Z,102300.69
2022-08-10T03:54:07.362Z,102310.13
2022-08-10T03:56:40.521Z,102310.41
2022-08-10T03:59:12.343Z,102313.69
2022-08-10T04:02:45.458Z,102312.72
2022-08-10T04:04:30.976Z,102304.63
2022-08-10T04:07:00.327Z,102318.34
2022-08-10T04:09:55.668Z,102308.97
2022-08-10T04:12:18.309Z,102310.13
2022-08-10T04:14:50.358Z,102314.13
2022-08-10T04:18:01.169Z,102317.19
2022-08-10T04:20:37.990Z,102320.69
2022-08-10T04:23:23.726Z,102316.84
2022-08-10T04:25:52.710Z,102315.59
2022-08-10T04:28:20.736Z,102321.91
2022-08-10T04:30:52.969Z,102320.31
2022-08-10T04:33:22.739Z,102317.69
2022-08-10T04:35:52.175Z,102327.28
2022-08-10T04:38:20.702Z,102330.69
2022-08-10T04:40:48.283Z,102320.19
2022-08-10T04:43:15.865Z,102332.22
2022-08-10T04:45:49.470Z,102326.72
2022-08-10T04:48:40.877Z,102324.31
2022-08-10T04:51:10.755Z,102325.56
2022-08-10T04:54:04.597Z,102328.25
2022-08-10T04:56:34.942Z,102331.72
2022-08-10T04:59:02.269Z,102332.84
2022-08-10T05:02:21.623Z,102338.41
2022-08-10T05:04:38.458Z,102329.38
2022-08-10T05:07:17.049Z,102321.88
2022-08-10T05:10:04.614Z,102332.25
2022-08-10T05:12:39.005Z,102328.53
2022-08-10T05:15:11.786Z,102336.03
2022-08-10T05:17:41.549Z,102333.06
2022-08-10T05:20:29.130Z,102338.44
2022-08-10T05:22:56.181Z,102335.81
2022-08-10T05:25:23.270Z,102335.81
2022-08-10T05:27:52.328Z,102333.31
2022-08-10T05:30:24.919Z,102338.50
2022-08-10T05:32:57.138Z,102328.06
2022-08-10T05:35:52.441Z,102332.19
2022-08-10T05:38:18.146Z,102336.25
2022-08-10T05:40:47.876Z,102339.13
2022-08-10T05:43:21.219Z,102327.84
2022-08-10T05:46:17.683Z,102329.25
2022-08-10T05:48:58.858Z,102329.59
2022-08-10T05:51:30.275Z,102329.28
2022-08-10T05:54:02.155Z,102334.19
2022-08-10T05:56:55.678Z,102330.06
2022-08-10T06:00:12.679Z,102326.91
2022-08-10T06:02:34.968Z,102329.66
2022-08-10T06:05:16.231Z,102331.66
2022-08-10T06:07:51.908Z,102336.63
2022-08-10T06:10:31.509Z,102340.50
2022-08-10T06:13:29.634Z,102342.03
2022-08-10T06:16:12.649Z,102339.59
2022-08-10T06:18:40.898Z,102340.09
2022-08-10T06:21:09.692Z,102346.88
2022-08-10T06:23:39.433Z,102336.91
2022-08-10T06:26:11.755Z,102338.72
2022-08-10T06:29:07.090Z,102339.16
2022-08-10T06:31:48.032Z,102333.91
2022-08-10T06:34:34.550Z,102334.41
2022-08-10T06:37:08.182Z,102329.63
2022-08-10T06:39:37.050Z,102329.06
2022-08-10T06:42:38.038Z,102337.94
2022-08-10T06:45:35.386Z,102329.47
2022-08-10T06:48:04.895Z,102330.22
2022-08-10T06:50:58.022Z,102319.84
2022-08-10T06:53:53.343Z,102326.41
2022-08-10T06:56:37.628Z,102325.75
2022-08-10T06:59:30.158Z,102330.09
2022-08-10T07:02:25.108Z,102324.22
2022-08-10T07:05:01.061Z,102326.00
2022-08-10T07:07:37.818Z,102326.13
2022-08-10T07:10:06.194Z,102331.53
2022-08-10T07:12:36.631Z,102330.53
2022-08-10T07:15:05.124Z,102326.00
2022-08-10T07:17:37.323Z,102328.72
2022-08-10T07:20:09.511Z,102331.66
2022-08-10T07:23:01.648Z,102328.53
2022-08-10T07:25:29.580Z,102331.84
2022-08-10T07:28:01.789Z,102334.31
2022-08-10T07:30:32.933Z,102333.81
2022-08-10T07:33:02.783Z,102332.94
2022-08-10T07:35:42.916Z,102332.78
2022-08-10T07:38:31.865Z,102327.44
2022-08-10T07:41:02.839Z,102323.22
2022-08-10T07:43:40.548Z,102345.03
2022-08-10T07:46:24.748Z,102336.16
2022-08-10T07:49:02.919Z,102343.94
2022-08-10T07:51:54.911Z,102328.19
2022-08-10T07:54:25.504Z,102334.81
2022-08-10T07:56:59.929Z,102329.63
2022-08-10T07:59:45.050Z,102334.38
2022-08-10T08:02:50.440Z,102336.09
2022-08-10T08:05:29.892Z,102336.06
2022-08-10T08:08:15.928Z,102331.06
2022-08-10T08:10:43.498Z,102330.22
2022-08-10T08:13:11.589Z,102331.44
2022-08-10T08:16:19.941Z,102329.22
2022-08-10T08:18:29.369Z,102331.09
2022-08-10T08:20:58.245Z,102328.22
2022-08-10T08:24:16.396Z,102320.00
2022-08-10T08:26:18.655Z,102320.97
2022-08-10T08:28:46.511Z,102320.66
2022-08-10T08:31:16.067Z,102324.25
2022-08-10T08:33:49.053Z,102318.47
2022-08-10T08:36:19.852Z,102322.88
2022-08-10T08:38:48.366Z,102317.19
2022-08-10T08:41:55.758Z,102313.66
2022-08-10T08:45:00.609Z,102311.19
2022-08-10T08:48:04.687Z,102312.50
2022-08-10T08:51:10.860Z,102311.25
2022-08-10T08:54:01.207Z,102296.31
2022-08-10T08:56:59.978Z,102306.22
2022-08-10T09:00:06.949Z,102308.84
2022-08-10T09:03:15.916Z,102303.66
2022-08-10T09:05:59.490Z,102306.63
2022-08-10T09:08:42.902Z,102300.03
2022-08-10T09:11:34.123Z,102290.00
2022-08-10T09:14:33.196Z,102288.56
2022-08-10T09:17:19.010Z,102300.44
2022-08-10T09:20:08.468Z,102290.56
2022-08-10T09:22:57.276Z,102284.28
2022-08-10T09:25:32.666Z,102284.25
2022-08-10T09:28:16.993Z,102277.69
2022-08-10T09:31:18.762Z,102278.34
2022-08-10T09:36:25.147Z,102279.72
2022-08-10T09:37:16.677Z,102275.72
2022-08-10T09:40:56.560Z,102274.41
2022-08-10T09:43:24.963Z,102265.13
2022-08-10T09:46:20.819Z,102262.16
2022-08-10T09:49:04.737Z,102251.75
2022-08-10T09:52:07.317Z,102249.19
2022-08-10T09:55:04.795Z,102252.69
2022-08-10T09:57:58.913Z,102258.97
2022-08-10T10:01:56.410Z,102248.47
2022-08-10T10:04:30.901Z,102250.91
2022-08-10T10:07:08.643Z,102258.31
2022-08-10T10:10:08.989Z,102248.53
2022-08-10T10:13:06.137Z,102256.34
2022-08-10T10:16:24.397Z,102256.22
2022-08-10T10:19:15.966Z,102241.47
2022-08-10T10:22:01.247Z,102242.50
2022-08-10T10:25:19.771Z,102228.22
2022-08-10T10:28:44.451Z,102225.06
2022-08-10T10:31:53.641Z,102226.56
2022-08-10T10:35:07.789Z,102221.38
2022-08-10T10:38:00.920Z,102217.09
2022-08-10T10:40:32.753Z,102220.84
2022-08-10T10:43:51.637Z,102222.84
2022-08-10T10:46:48.427Z,102222.50
2022-08-10T10:49:42.935Z,102221.91
2022-08-10T10:53:21.384Z,102213.97
2022-08-10T10:56:15.475Z,102219.97
2022-08-10T10:59:15.322Z,102217.75
2022-08-10T11:02:11.869Z,102216.66
2022-08-10T11:04:59.249Z,102214.53
2022-08-10T11:07:40.291Z,102213.97
2022-08-10T11:10:32.897Z,102206.69
2022-08-10T11:14:25.050Z,102213.56
2022-08-10T11:16:19.990Z,102207.09
2022-08-10T11:20:02.387Z,102206.09
2022-08-10T11:22:59.123Z,102201.22
2022-08-10T11:25:56.069Z,102190.44
2022-08-10T11:28:50.145Z,102193.31
2022-08-10T11:31:37.769Z,102195.03
2022-08-10T11:35:11.296Z,102187.78
2022-08-10T11:38:32.900Z,102183.13
2022-08-10T11:42:09.257Z,102172.38
2022-08-10T11:44:43.529Z,102184.91
2022-08-10T11:47:27.643Z,102178.69
2022-08-10T11:50:17.542Z,102184.84
2022-08-10T11:53:20.923Z,102179.75
2022-08-10T11:55:56.190Z,102173.75
2022-08-10T11:58:47.214Z,102167.00
2022-08-10T12:01:19.024Z,102172.59
2022-08-10T12:03:48.245Z,102181.88
2022-08-10T12:06:33.991Z,102174.72
2022-08-10T12:10:07.479Z,102175.03
2022-08-10T12:11:58.263Z,102178.59
2022-08-10T12:14:41.841Z,102183.94
2022-08-10T12:17:40.914Z,102180.16
2022-08-10T12:20:26.315Z,102180.44
2022-08-10T12:23:10.596Z,102171.25
2022-08-10T12:25:57.821Z,102169.53
2022-08-10T12:28:50.295Z,102172.88
2022-08-10T12:31:31.070Z,102154.59
2022-08-10T12:34:20.175Z,102163.91
2022-08-10T12:37:22.690Z,102159.97
2022-08-10T12:40:34.344Z,102159.41
2022-08-10T12:44:05.553Z,102155.25
2022-08-10T12:46:32.753Z,102144.88
2022-08-10T12:49:33.542Z,102150.78
2022-08-10T12:52:27.619Z,102145.22
2022-08-10T12:54:58.836Z,102144.38
2022-08-10T12:57:28.013Z,102142.19
2022-08-10T13:00:01.618Z,102142.22
2022-08-10T13:02:33.773Z,102135.28
2022-08-10T13:05:11.214Z,102129.63
2022-08-10T13:08:25.612Z,102130.88
2022-08-10T13:10:33.135Z,102128.88
2022-08-10T13:13:02.162Z,102130.78
2022-08-10T13:15:49.491Z,102127.00
2022-08-10T13:18:34.635Z,102119.81
2022-08-10T13:21:20.306Z,102117.78
2022-08-10T13:24:23.963Z,102118.75
2022-08-10T13:27:24.607Z,102121.59
2022-08-10T13:30:12.092Z,102112.44
2022-08-10T13:32:47.045Z,102109.06
2022-08-10T13:35:17.681Z,102107.19
2022-08-10T13:37:48.332Z,102109.53
2022-08-10T13:40:20.489Z,102112.81
2022-08-10T13:42:49.773Z,102099.28
2022-08-10T13:45:21.172Z,102099.50
2022-08-10T13:48:14.661Z,102105.44
2022-08-10T13:50:43.847Z,102103.50
2022-08-10T13:53:15.438Z,102099.78
2022-08-10T13:55:54.781Z,102097.31
2022-08-10T13:58:32.925Z,102087.19
2022-08-10T14:01:15.310Z,102091.91
2022-08-10T14:03:44.720Z,102086.50
2022-08-10T14:06:20.925Z,102077.75
2022-08-10T14:09:01.592Z,102075.78
2022-08-10T14:11:30.680Z,102078.13
2022-08-10T14:13:59.116Z,102084.25
2022-08-10T14:16:27.224Z,102062.13
2022-08-10T14:18:58.162Z,102062.38
2022-08-10T14:21:25.516Z,102055.88
2022-08-10T14:23:53.913Z,102058.59
2022-08-10T14:26:29.107Z,102060.75
2022-08-10T14:29:09.492Z,102058.41
2022-08-10T14:31:39.234Z,102056.91
2022-08-10T14:36:14.692Z,102062.25
2022-08-10T14:37:44.875Z,102068.66
2022-08-10T14:40:22.180Z,102069.34
2022-08-10T14:43:01.768Z,102059.41
2022-08-10T14:45:37.067Z,102059.88
2022-08-10T14:48:14.626Z,102052.69
2022-08-10T14:50:55.443Z,102056.75
2022-08-10T14:53:27.431Z,102051.84
2022-08-10T14:56:08.057Z,102043.03
2022-08-10T14:59:06.980Z,102044.94
2022-08-10T15:02:00.535Z,102037.00
2022-08-10T15:04:28.892Z,102048.19
2022-08-10T15:07:00.891Z,102043.75
2022-08-10T15:09:59.400Z,102035.50
2022-08-10T15:12:40.573Z,102031.28
2022-08-10T15:15:16.503Z,102034.03
2022-08-10T15:17:57.360Z,102028.41
2022-08-10T15:20:27.838Z,102026.53
2022-08-10T15:23:30.074Z,102022.63
2022-08-10T15:26:11.170Z,102021.63
2022-08-10T15:29:22.246Z,102023.41
2022-08-10T15:31:55.488Z,102018.22
2022-08-10T15:35:03.039Z,102015.88
2022-08-10T15:37:39.412Z,102020.84
2022-08-10T15:40:24.726Z,102015.16
2022-08-10T15:43:05.618Z,102017.53
2022-08-10T15:46:29.935Z,102011.72
2022-08-10T15:49:05.719Z,102010.88
2022-08-10T15:51:53.901Z,102016.16
2022-08-10T15:54:33.781Z,102011.19
2022-08-10T15:57:18.027Z,102011.13
2022-08-10T15:59:55.020Z,102013.03
2022-08-10T16:02:28.850Z,102007.06
2022-08-10T16:05:21.664Z,102017.03
2022-08-10T16:08:13.937Z,102008.25
2022-08-10T16:10:53.446Z,101999.25
2022-08-10T16:13:50.581Z,102004.75
2022-08-10T16:16:14.114Z,102002.00
2022-08-10T16:18:45.752Z,102001.19
2022-08-10T16:21:23.990Z,102008.16
2022-08-10T16:24:15.318Z,102010.38
2022-08-10T16:26:53.247Z,102011.44
2022-08-10T16:29:27.509Z,102004.34
2022-08-10T16:32:04.277Z,101992.34
2022-08-10T16:34:36.827Z,102008.44
2022-08-10T16:37:14.015Z,102003.78
2022-08-10T16:39:58.077Z,101998.06
2022-08-10T16:42:42.987Z,101999.44
2022-08-10T16:45:39.265Z,102007.59
2022-08-10T16:48:09.698Z,101998.06
2022-08-10T16:51:07.189Z,101992.84
2022-08-10T16:53:58.092Z,101996.13
2022-08-10T16:56:49.056Z,101993.94
2022-08-10T16:59:24.358Z,101995.56
2022-08-10T17:01:54.197Z,101991.22
2022-08-10T17:04:23.442Z,101987.88
2022-08-10T17:07:02.663Z,101993.84
2022-08-10T17:09:34.261Z,101990.59
2022-08-10T17:12:11.445Z,102002.28
2022-08-10T17:14:41.735Z,102003.69
2022-08-10T17:17:27.566Z,101999.13
2022-08-10T17:20:31.141Z,101995.28
2022-08-10T17:22:54.888Z,101988.50
2022-08-10T17:25:45.899Z,101992.00
2022-08-10T17:28:32.763Z,101994.47
2022-08-10T17:31:18.981Z,102001.22
2022-08-10T17:34:21.372Z,101996.13
2022-08-10T17:36:57.315Z,101999.31
2022-08-10T17:39:43.376Z,101997.69
2022-08-10T17:42:12.271Z,102001.47
2022-08-10T17:44:40.875Z,102000.91
2022-08-10T17:47:11.672Z,101995.16
2022-08-10T17:49:39.981Z,102006.03
2022-08-10T17:52:11.092Z,102011.66
2022-08-10T17:54:47.561Z,102004.50
2022-08-10T17:57:21.572Z,102004.84
2022-08-10T17:59:52.880Z,102001.06
2022-08-10T18:02:27.579Z,102000.72
2022-08-10T18:04:58.814Z,102009.00
2022-08-10T18:07:41.269Z,102011.13
2022-08-10T18:10:11.536Z,102010.09
2022-08-10T18:12:49.956Z,102002.59
2022-08-10T18:15:24.968Z,102008.56
2022-08-10T18:17:59.891Z,102007.06
2022-08-10T18:20:35.704Z,102015.81
2022-08-10T18:23:05.141Z,102010.22
2022-08-10T18:25:40.493Z,102010.81
2022-08-10T18:28:16.249Z,102010.03
2022-08-10T18:33:50.495Z,102011.59
2022-08-10T18:36:18.882Z,102022.38
2022-08-10T18:38:50.331Z,102020.75
2022-08-10T18:41:30.685Z,102019.00
2022-08-10T18:44:15.436Z,102026.22
2022-08-10T18:46:59.925Z,102030.16
2022-08-10T18:49:40.557Z,102032.50
2022-08-10T18:52:14.675Z,102037.50
2022-08-10T18:54:53.798Z,102042.47
2022-08-10T18:57:48.605Z,102047.59
2022-08-10T19:00:19.327Z,102047.59
2022-08-10T19:03:11.523Z,102046.28
2022-08-10T19:05:59.134Z,102057.69
2022-08-10T19:09:03.106Z,102059.16
2022-08-10T19:11:58.448Z,102069.03
2022-08-10T19:14:37.667Z,102065.00
2022-08-10T19:18:03.051Z,102068.63
2022-08-10T19:21:33.124Z,102073.22
2022-08-10T19:24:32.519Z,102075.13
2022-08-10T19:27:33.551Z,102079.09
2022-08-10T19:30:16.606Z,102086.34
2022-08-10T19:33:14.220Z,102086.13
2022-08-10T19:36:05.381Z,102088.75
2022-08-10T19:38:50.267Z,102088.13
2022-08-10T19:41:59.209Z,102084.63
2022-08-10T19:45:01.132Z,102089.94
2022-08-10T19:47:43.168Z,102082.38
2022-08-10T19:50:19.946Z,102078.84
2022-08-10T19:53:02.640Z,102075.13
2022-08-10T19:56:01.937Z,102083.84
2022-08-10T19:59:14.044Z,102083.94
2022-08-10T20:01:55.386Z,102085.22
2022-08-10T20:04:33.178Z,102089.78
2022-08-10T20:07:13.649Z,102087.44
2022-08-10T20:10:29.329Z,102093.91
2022-08-10T20:13:21.936Z,102093.69
2022-08-10T20:16:03.506Z,102092.97
2022-08-10T20:19:05.489Z,102094.97
2022-08-10T20:21:42.162Z,102093.53
2022-08-10T20:24:32.447Z,102089.75
2022-08-10T20:27:58.987Z,102091.06
2022-08-10T20:30:15.732Z,102094.97
2022-08-10T20:32:43.478Z,102089.31
2022-08-10T20:35:53.271Z,102090.00
2022-08-10T20:38:32.886Z,102093.53
2022-08-10T20:41:24.570Z,102086.66
2022-08-10T20:44:26.492Z,102098.56
2022-08-10T20:47:17.226Z,102089.03
2022-08-10T20:50:22.686Z,102093.16
2022-08-10T20:52:52.849Z,102101.59
2022-08-10T20:55:24.031Z,102095.13
2022-08-10T20:58:37.876Z,102096.19
2022-08-10T21:02:07.064Z,102099.94
2022-08-10T21:04:51.881Z,102097.75
2022-08-10T21:08:01.838Z,102104.91
2022-08-10T21:11:02.996Z,102098.00
2022-08-10T21:14:01.187Z,102092.25
2022-08-10T21:16:47.492Z,102086.13
2022-08-10T21:19:36.061Z,102089.09
2022-08-10T21:22:23.814Z,102092.84
2022-08-10T21:25:29.456Z,102088.00
2022-08-10T21:28:31.677Z,102095.31
2022-08-10T21:31:23.424Z,102088.97
2022-08-10T21:33:59.343Z,102093.22
2022-08-10T21:36:58.316Z,102098.50
2022-08-10T21:39:43.375Z,102092.38
2022-08-10T21:42:55.424Z,102091.66
2022-08-10T21:46:15.724Z,102098.59
2022-08-10T21:49:37.079Z,102100.47
2022-08-10T21:52:35.872Z,102102.47
2022-08-10T21:56:14.210Z,102113.50
2022-08-10T21:59:24.492Z,102119.91
2022-08-10T22:05:39.323Z,102104.78
2022-08-10T22:11:49.191Z,102112.38
2022-08-10T22:15:01.163Z,102107.00
2022-08-10T22:18:05.035Z,102115.69
2022-08-10T22:21:03.913Z,102108.47
2022-08-10T22:24:34.389Z,102105.72
2022-08-10T22:27:47.012Z,102105.00
2022-08-10T22:30:41.450Z,102104.22
2022-08-10T22:34:13.587Z,102098.97
2022-08-10T22:37:33.418Z,102108.22
2022-08-10T22:40:41.903Z,102107.47
2022-08-10T22:43:45.391Z,102104.66
2022-08-10T22:46:46.316Z,102105.34
2022-08-10T22:49:21.067Z,102103.06
2022-08-10T22:52:10.831Z,102101.59
2022-08-10T22:55:18.037Z,102105.22
2022-08-10T22:58:05.890Z,102103.06
2022-08-10T23:00:34.218Z,102096.16
2022-08-10T23:03:22.176Z,102100.97
2022-08-10T23:06:11.576Z,102093.34
2022-08-10T23:08:51.197Z,102097.06
2022-08-10T23:11:33.097Z,102091.06
2022-08-10T23:14:10.486Z,102095.06
2022-08-10T23:17:09.041Z,102088.56
2022-08-10T23:20:04.369Z,102080.19
2022-08-10T23:22:44.677Z,102090.34
2022-08-10T23:25:20.705Z,102086.59
2022-08-10T23:27:55.909Z,102090.97
2022-08-10T23:30:45.116Z,102086.16
2022-08-10T23:33:37.676Z,102086.81
2022-08-10T23:36:33.418Z,102087.75
2022-08-10T23:39:25.193Z,102089.41
2022-08-10T23:41:53.288Z,102089.16
2022-08-10T23:44:22.731Z,102091.69
2022-08-10T23:46:51.595Z,102096.44
2022-08-10T23:49:20.165Z,102091.06
2022-08-10T23:51:55.510Z,102096.28
2022-08-10T23:54:25.723Z,102089.44
2022-08-10T23:57:01.004Z,102087.66
2022-08-10T23:59:31.951Z,102080.25
